createdAt,value
2019-05-28T00:00:02.083Z,0
2019-05-28T00:00:47.315Z,0
2019-05-28T00:02:05.749Z,0
2019-05-28T00:02:58.041Z,0
2019-05-28T00:03:24.174Z,0
2019-05-28T00:04:16.486Z,0
2019-05-28T00:05:08.795Z,0
2019-05-28T00:05:34.931Z,0
2019-05-28T00:06:27.223Z,0
2019-05-28T00:07:45.685Z,0
2019-05-28T00:08:38.016Z,0
2019-05-28T00:09:04.194Z,0
2019-05-28T00:09:56.538Z,0
2019-05-28T00:10:48.904Z,0
2019-05-28T00:11:15.048Z,0
2019-05-28T00:12:07.364Z,0
2019-05-28T00:13:25.814Z,0
2019-05-28T00:14:18.135Z,0
2019-05-28T00:14:44.270Z,0
2019-05-28T00:15:36.553Z,0
2019-05-28T00:16:28.866Z,0
2019-05-28T00:16:55.003Z,0
2019-05-28T00:17:47.292Z,0
2019-05-28T00:19:05.744Z,0
2019-05-28T00:19:58.054Z,0
2019-05-28T00:20:24.193Z,0
2019-05-28T00:21:16.503Z,0
2019-05-28T00:22:08.841Z,0
2019-05-28T00:22:34.974Z,0
2019-05-28T00:23:27.267Z,0
2019-05-28T00:24:45.700Z,0
2019-05-28T00:25:38.995Z,0
2019-05-28T00:26:05.133Z,0
2019-05-28T00:26:57.447Z,0
2019-05-28T00:28:15.882Z,0
2019-05-28T00:29:08.251Z,0
2019-05-28T00:29:34.344Z,0
2019-05-28T00:30:28.613Z,0
2019-05-28T00:30:54.749Z,0
2019-05-28T00:31:47.028Z,0
2019-05-28T00:33:05.517Z,0
2019-05-28T00:33:57.878Z,0
2019-05-28T00:34:24.017Z,0
2019-05-28T00:35:16.342Z,0
2019-05-28T00:36:08.693Z,0
2019-05-28T00:36:34.833Z,0
2019-05-28T00:37:27.143Z,0
2019-05-28T00:37:54.694Z,0
2019-05-28T00:38:20.822Z,0
2019-05-28T00:38:46.981Z,0
2019-05-28T00:39:39.302Z,0
2019-05-28T00:40:05.503Z,0
2019-05-28T00:40:57.791Z,0
2019-05-28T00:42:16.230Z,0
2019-05-28T00:43:08.524Z,0
2019-05-28T00:43:34.667Z,0
2019-05-28T00:44:26.980Z,0
2019-05-28T00:45:19.329Z,0
2019-05-28T00:45:45.464Z,0
2019-05-28T00:46:37.764Z,0
2019-05-28T00:47:56.242Z,0
2019-05-28T00:48:48.571Z,0
2019-05-28T00:49:14.717Z,0
2019-05-28T00:50:07.049Z,0
2019-05-28T00:50:59.340Z,0
2019-05-28T00:51:25.483Z,0
2019-05-28T00:52:17.795Z,0
2019-05-28T00:53:36.276Z,0
2019-05-28T00:54:28.602Z,0
2019-05-28T00:54:54.768Z,0
2019-05-28T00:55:47.142Z,0
2019-05-28T00:56:39.433Z,0
2019-05-28T00:57:05.713Z,0
2019-05-28T00:57:58.023Z,0
2019-05-28T00:59:16.500Z,0
2019-05-28T01:00:08.789Z,0
2019-05-28T01:00:37.041Z,0
2019-05-28T01:01:28.302Z,0
2019-05-28T01:01:54.444Z,0
2019-05-28T01:02:46.729Z,0
2019-05-28T01:03:39.028Z,0
2019-05-28T01:04:05.193Z,0
2019-05-28T01:04:57.574Z,0
2019-05-28T01:06:15.992Z,0
2019-05-28T01:07:08.314Z,0
2019-05-28T01:07:34.470Z,0
2019-05-28T01:08:26.777Z,0
2019-05-28T01:09:19.111Z,0
2019-05-28T01:09:45.250Z,0
2019-05-28T01:10:37.539Z,0
2019-05-28T01:11:56.041Z,0
2019-05-28T01:12:48.326Z,0
2019-05-28T01:13:14.470Z,0
2019-05-28T01:14:06.769Z,0
2019-05-28T01:14:59.071Z,0
2019-05-28T01:15:25.206Z,0
2019-05-28T01:16:17.499Z,0
2019-05-28T01:17:35.949Z,0
2019-05-28T01:18:28.236Z,0
2019-05-28T01:18:54.400Z,0
2019-05-28T01:19:46.700Z,0
2019-05-28T01:20:39.010Z,0
2019-05-28T01:21:05.181Z,0
2019-05-28T01:21:57.471Z,0
2019-05-28T01:23:15.931Z,0
2019-05-28T01:24:08.235Z,0
2019-05-28T01:24:34.376Z,0
2019-05-28T01:25:26.771Z,0
2019-05-28T01:26:19.070Z,0
2019-05-28T01:26:45.205Z,0
2019-05-28T01:27:37.506Z,0
2019-05-28T01:28:55.942Z,0
2019-05-28T01:29:48.251Z,0
2019-05-28T01:30:14.387Z,0
2019-05-28T01:31:08.693Z,0
2019-05-28T01:31:34.811Z,0
2019-05-28T01:32:27.209Z,0
2019-05-28T01:33:45.726Z,0
2019-05-28T01:34:38.088Z,0
2019-05-28T01:35:56.548Z,0
2019-05-28T01:36:48.838Z,0
2019-05-28T01:37:14.975Z,0
2019-05-28T01:38:08.587Z,0
2019-05-28T01:39:25.755Z,0
2019-05-28T01:40:18.076Z,0
2019-05-28T01:41:36.503Z,0
2019-05-28T01:42:28.796Z,0
2019-05-28T01:42:54.930Z,0
2019-05-28T01:43:47.219Z,0
2019-05-28T01:45:05.702Z,0
2019-05-28T01:45:58.038Z,0
2019-05-28T01:47:16.465Z,0
2019-05-28T01:48:08.760Z,0
2019-05-28T01:48:34.921Z,0
2019-05-28T01:49:27.251Z,0
2019-05-28T01:50:45.796Z,0
2019-05-28T01:51:38.162Z,0
2019-05-28T01:52:04.329Z,0
2019-05-28T01:52:56.653Z,0
2019-05-28T01:53:49.006Z,0
2019-05-28T01:54:15.140Z,0
2019-05-28T01:55:07.443Z,0
2019-05-28T01:56:25.882Z,0
2019-05-28T01:57:18.205Z,0
2019-05-28T01:57:44.340Z,0
2019-05-28T01:58:36.647Z,0
2019-05-28T01:59:28.951Z,0
2019-05-28T01:59:55.088Z,0
2019-05-28T02:00:47.397Z,0
2019-05-28T02:01:14.571Z,0
2019-05-28T02:02:06.830Z,0
2019-05-28T02:02:59.259Z,0
2019-05-28T02:03:25.401Z,0
2019-05-28T02:04:17.704Z,0
2019-05-28T02:05:36.257Z,0
2019-05-28T02:06:28.568Z,0
2019-05-28T02:06:54.709Z,0
2019-05-28T02:07:47.018Z,0
2019-05-28T02:08:39.329Z,0
2019-05-28T02:09:05.463Z,0
2019-05-28T02:09:57.756Z,0
2019-05-28T02:11:16.173Z,0
2019-05-28T02:12:08.470Z,0
2019-05-28T02:12:34.632Z,0
2019-05-28T02:13:26.947Z,0
2019-05-28T02:14:19.270Z,0
2019-05-28T02:14:45.438Z,0
2019-05-28T02:15:37.722Z,0
2019-05-28T02:16:56.193Z,0
2019-05-28T02:17:48.485Z,0
2019-05-28T02:18:14.623Z,0
2019-05-28T02:19:06.944Z,0
2019-05-28T02:19:59.268Z,0
2019-05-28T02:20:25.404Z,0
2019-05-28T02:21:17.751Z,0
2019-05-28T02:22:36.225Z,0
2019-05-28T02:23:28.527Z,0
2019-05-28T02:23:54.664Z,0
2019-05-28T02:24:46.966Z,0
2019-05-28T02:25:39.259Z,0
2019-05-28T02:26:05.387Z,0
2019-05-28T02:26:57.691Z,0
2019-05-28T02:28:16.135Z,0
2019-05-28T02:29:08.450Z,0
2019-05-28T02:29:34.587Z,0
2019-05-28T02:30:26.869Z,0
2019-05-28T02:31:27.143Z,0
2019-05-28T02:31:47.316Z,0
2019-05-28T02:33:05.784Z,0
2019-05-28T02:33:58.066Z,0
2019-05-28T02:35:16.501Z,0
2019-05-28T02:36:08.838Z,0
2019-05-28T02:36:35.010Z,0
2019-05-28T02:37:27.288Z,0
2019-05-28T02:38:45.782Z,0
2019-05-28T02:39:38.156Z,0
2019-05-28T02:40:04.294Z,0
2019-05-28T02:40:56.589Z,0
2019-05-28T02:41:48.903Z,0
2019-05-28T02:42:15.043Z,0
2019-05-28T02:43:07.349Z,0
2019-05-28T02:44:25.813Z,0
2019-05-28T02:45:18.106Z,4
2019-05-28T02:45:44.245Z,4
2019-05-28T02:46:36.528Z,4
2019-05-28T02:47:28.816Z,4
2019-05-28T02:47:54.958Z,4
2019-05-28T02:48:47.274Z,4
2019-05-28T02:50:05.727Z,4
2019-05-28T02:50:58.029Z,0
2019-05-28T02:52:16.515Z,4
2019-05-28T02:53:08.836Z,4
2019-05-28T02:53:34.998Z,4
2019-05-28T02:54:27.325Z,4
2019-05-28T02:55:45.771Z,8
2019-05-28T02:56:38.088Z,4
2019-05-28T02:57:56.574Z,8
2019-05-28T02:58:48.863Z,8
2019-05-28T02:59:15.021Z,4
2019-05-28T03:00:07.302Z,8
2019-05-28T03:01:25.764Z,12
2019-05-28T03:02:19.044Z,8
2019-05-28T03:02:45.183Z,12
2019-05-28T03:03:37.484Z,12
2019-05-28T03:04:55.944Z,12
2019-05-28T03:05:48.232Z,16
2019-05-28T03:06:14.376Z,12
2019-05-28T03:07:06.695Z,16
2019-05-28T03:07:59.067Z,16
2019-05-28T03:08:25.173Z,20
2019-05-28T03:09:17.545Z,20
2019-05-28T03:10:59.190Z,24
2019-05-28T03:11:56.488Z,36
2019-05-28T03:12:48.823Z,36
2019-05-28T03:13:15.011Z,40
2019-05-28T03:14:07.302Z,48
2019-05-28T03:15:25.747Z,56
2019-05-28T03:16:18.073Z,60
2019-05-28T03:17:36.583Z,72
2019-05-28T03:18:28.868Z,76
2019-05-28T03:18:55.004Z,80
2019-05-28T03:19:47.330Z,84
2019-05-28T03:21:05.782Z,84
2019-05-28T03:21:58.095Z,88
2019-05-28T03:23:16.522Z,92
2019-05-28T03:24:08.809Z,100
2019-05-28T03:24:34.974Z,104
2019-05-28T03:25:27.277Z,108
2019-05-28T03:26:45.758Z,120
2019-05-28T03:27:38.046Z,128
2019-05-28T03:28:56.478Z,140
2019-05-28T03:29:48.775Z,152
2019-05-28T03:30:14.945Z,156
2019-05-28T03:31:07.359Z,172
2019-05-28T03:32:27.807Z,196
2019-05-28T03:33:46.426Z,236
2019-05-28T03:34:41.805Z,260
2019-05-28T03:35:05.868Z,272
2019-05-28T03:35:58.224Z,284
2019-05-28T03:36:24.364Z,292
2019-05-28T03:37:16.665Z,300
2019-05-28T03:38:08.974Z,308
2019-05-28T03:38:35.114Z,312
2019-05-28T03:39:27.398Z,316
2019-05-28T03:40:45.844Z,316
2019-05-28T03:41:38.231Z,320
2019-05-28T03:42:04.377Z,320
2019-05-28T03:42:56.694Z,320
2019-05-28T03:43:48.996Z,324
2019-05-28T03:44:15.155Z,328
2019-05-28T03:45:07.446Z,328
2019-05-28T03:46:25.932Z,336
2019-05-28T03:47:18.247Z,336
2019-05-28T03:47:44.409Z,340
2019-05-28T03:48:36.693Z,348
2019-05-28T03:49:29.012Z,360
2019-05-28T03:49:55.151Z,364
2019-05-28T03:50:47.455Z,372
2019-05-28T03:52:05.938Z,384
2019-05-28T03:52:58.226Z,388
2019-05-28T03:53:24.381Z,388
2019-05-28T03:54:16.674Z,388
2019-05-28T03:55:09.012Z,388
2019-05-28T03:55:35.182Z,392
2019-05-28T03:56:27.503Z,388
2019-05-28T03:57:45.919Z,400
2019-05-28T03:58:38.242Z,408
2019-05-28T03:59:04.410Z,412
2019-05-28T03:59:57.901Z,432
2019-05-28T04:01:16.166Z,480
2019-05-28T04:02:22.387Z,516
2019-05-28T04:02:35.640Z,540
2019-05-28T04:03:27.956Z,588
2019-05-28T04:04:46.424Z,672
2019-05-28T04:05:38.760Z,728
2019-05-28T04:06:04.907Z,756
2019-05-28T04:06:57.231Z,808
2019-05-28T04:08:15.867Z,868
2019-05-28T04:09:08.027Z,896
2019-05-28T04:10:26.576Z,940
2019-05-28T04:11:18.854Z,968
2019-05-28T04:11:46.971Z,988
2019-05-28T04:12:39.264Z,1036
2019-05-28T04:13:05.430Z,1068
2019-05-28T04:13:57.716Z,1140
2019-05-28T04:15:16.215Z,1276
2019-05-28T04:16:08.533Z,1380
2019-05-28T04:16:34.697Z,1428
2019-05-28T04:17:27.739Z,1532
2019-05-28T04:17:55.036Z,1584
2019-05-28T04:18:49.776Z,1684
2019-05-28T04:19:17.776Z,1724
2019-05-28T04:19:45.046Z,1760
2019-05-28T04:20:37.572Z,1804
2019-05-28T04:21:57.051Z,1824
2019-05-28T04:23:16.418Z,1796
2019-05-28T04:24:09.404Z,1764
2019-05-28T04:24:35.773Z,1748
2019-05-28T04:25:28.750Z,1700
2019-05-28T04:25:56.487Z,1664
2019-05-28T04:27:17.452Z,1540
2019-05-28T04:28:36.405Z,1380
2019-05-28T04:29:28.738Z,1252
2019-05-28T04:29:54.879Z,1184
2019-05-28T04:30:47.202Z,1068
2019-05-28T04:32:05.737Z,924
2019-05-28T04:32:59.080Z,848
2019-05-28T04:33:25.218Z,820
2019-05-28T04:34:18.489Z,764
2019-05-28T04:34:44.625Z,740
2019-05-28T04:35:36.909Z,696
2019-05-28T04:36:29.241Z,656
2019-05-28T04:36:55.405Z,636
2019-05-28T04:37:47.698Z,608
2019-05-28T04:39:06.197Z,592
2019-05-28T04:39:58.494Z,592
2019-05-28T04:40:24.700Z,604
2019-05-28T04:41:17.042Z,628
2019-05-28T04:42:09.326Z,668
2019-05-28T04:42:35.456Z,700
2019-05-28T04:43:27.743Z,756
2019-05-28T04:44:46.209Z,852
2019-05-28T04:45:38.493Z,920
2019-05-28T04:46:04.635Z,952
2019-05-28T04:46:56.944Z,1020
2019-05-28T04:48:16.381Z,1096
2019-05-28T04:49:08.709Z,1124
2019-05-28T04:49:34.845Z,1124
2019-05-28T04:50:27.217Z,1116
2019-05-28T04:51:45.635Z,1052
2019-05-28T04:52:38.911Z,996
2019-05-28T04:53:05.047Z,972
2019-05-28T04:53:57.396Z,940
2019-05-28T04:55:15.845Z,948
2019-05-28T04:56:08.136Z,992
2019-05-28T04:56:34.273Z,1024
2019-05-28T04:57:26.621Z,1104
2019-05-28T04:58:18.941Z,1180
2019-05-28T04:58:45.085Z,1216
2019-05-28T04:59:37.374Z,1252
2019-05-28T05:00:55.840Z,1256
2019-05-28T05:01:48.142Z,1256
2019-05-28T05:02:14.635Z,1260
2019-05-28T05:03:07.953Z,1292
2019-05-28T05:04:26.391Z,1368
2019-05-28T05:05:18.795Z,1428
2019-05-28T05:05:44.913Z,1452
2019-05-28T05:06:37.193Z,1492
2019-05-28T05:07:55.663Z,1516
2019-05-28T05:08:48.004Z,1524
2019-05-28T05:10:06.429Z,1532
2019-05-28T05:11:25.850Z,1552
2019-05-28T05:12:18.242Z,1568
2019-05-28T05:12:44.379Z,1576
2019-05-28T05:13:36.695Z,1592
2019-05-28T05:14:29.055Z,1616
2019-05-28T05:14:55.171Z,1624
2019-05-28T05:15:47.537Z,1624
2019-05-28T05:17:05.958Z,1592
2019-05-28T05:17:58.288Z,1576
2019-05-28T05:18:24.438Z,1572
2019-05-28T05:19:16.738Z,1588
2019-05-28T05:20:09.078Z,1628
2019-05-28T05:20:35.225Z,1648
2019-05-28T05:21:27.521Z,1696
2019-05-28T05:22:45.997Z,1764
2019-05-28T05:23:38.300Z,1804
2019-05-28T05:24:04.459Z,1820
2019-05-28T05:24:56.830Z,1856
2019-05-28T05:25:49.701Z,1892
2019-05-28T05:26:15.805Z,1912
2019-05-28T05:27:08.143Z,1960
2019-05-28T05:27:34.351Z,1984
2019-05-28T05:28:26.668Z,2024
2019-05-28T05:29:19.010Z,2076
2019-05-28T05:29:45.165Z,2100
2019-05-28T05:30:37.500Z,2156
2019-05-28T05:31:56.007Z,2232
2019-05-28T05:32:48.859Z,2272
2019-05-28T05:33:20.111Z,2300
2019-05-28T05:34:36.425Z,2404
2019-05-28T05:35:28.739Z,2492
2019-05-28T05:35:55.188Z,2548
2019-05-28T05:36:47.480Z,2648
2019-05-28T05:38:05.973Z,2780
2019-05-28T05:38:58.291Z,2832
2019-05-28T05:39:24.431Z,2848
2019-05-28T05:40:16.800Z,2840
2019-05-28T05:41:09.130Z,2800
2019-05-28T05:41:35.259Z,2772
2019-05-28T05:42:27.698Z,2716
2019-05-28T05:42:54.275Z,2684
2019-05-28T05:43:46.644Z,2648
2019-05-28T05:44:39.206Z,2684
2019-05-28T05:45:07.454Z,2712
2019-05-28T05:45:57.832Z,2776
2019-05-28T05:47:16.344Z,2960
2019-05-28T05:48:08.661Z,3148
2019-05-28T05:48:34.803Z,3272
2019-05-28T05:49:27.504Z,3580
2019-05-28T05:50:46.343Z,4252
2019-05-28T05:51:38.681Z,4812
2019-05-28T05:52:04.826Z,5120
2019-05-28T05:52:57.150Z,5776
2019-05-28T05:54:15.642Z,6772
2019-05-28T05:55:07.923Z,7392
2019-05-28T05:56:26.355Z,8144
2019-05-28T05:57:18.672Z,8520
2019-05-28T05:57:44.812Z,8680
2019-05-28T05:58:37.168Z,8892
2019-05-28T05:59:29.465Z,8892
2019-05-28T05:59:55.598Z,8844
2019-05-28T06:00:47.958Z,8560
2019-05-28T06:02:06.436Z,8336
2019-05-28T06:02:58.758Z,8332
2019-05-28T06:03:39.503Z,8332
2019-05-28T06:04:19.228Z,8304
2019-05-28T06:04:45.360Z,8260
2019-05-28T06:05:37.652Z,8100
2019-05-28T06:06:56.141Z,7756
2019-05-28T06:07:48.549Z,7508
2019-05-28T06:08:14.812Z,7444
2019-05-28T06:09:09.121Z,7460
2019-05-28T06:09:35.291Z,7548
2019-05-28T06:10:27.677Z,7888
2019-05-28T06:11:46.188Z,8688
2019-05-28T06:12:38.515Z,9272
2019-05-28T06:13:04.659Z,9568
2019-05-28T06:13:56.969Z,10064
2019-05-28T06:14:49.277Z,10484
2019-05-28T06:15:15.536Z,10696
2019-05-28T06:16:07.818Z,11108
2019-05-28T06:17:26.296Z,11840
2019-05-28T06:18:18.654Z,12356
2019-05-28T06:18:44.798Z,12632
2019-05-28T06:19:37.209Z,13200
2019-05-28T06:21:08.706Z,13712
2019-05-28T06:21:49.151Z,13644
2019-05-28T06:22:15.283Z,13428
2019-05-28T06:23:07.587Z,12824
2019-05-28T06:24:26.032Z,11784
2019-05-28T06:25:18.449Z,11132
2019-05-28T06:25:44.568Z,10804
2019-05-28T06:26:36.889Z,10312
2019-05-28T06:27:56.250Z,9476
2019-05-28T06:28:48.541Z,9076
2019-05-28T06:29:14.679Z,8932
2019-05-28T06:30:06.974Z,8652
2019-05-28T06:31:25.970Z,8396
2019-05-28T06:32:18.328Z,8536
2019-05-28T06:32:44.535Z,8696
2019-05-28T06:33:36.830Z,9076
2019-05-28T06:34:56.314Z,9712
2019-05-28T06:35:48.747Z,10224
2019-05-28T06:36:15.065Z,10532
2019-05-28T06:37:07.572Z,11212
2019-05-28T06:37:37.332Z,11608
2019-05-28T06:38:04.900Z,12044
2019-05-28T06:39:26.462Z,13456
2019-05-28T06:40:18.790Z,14356
2019-05-28T06:40:44.973Z,14756
2019-05-28T06:41:37.422Z,15324
2019-05-28T06:42:56.266Z,16148
2019-05-28T06:43:48.654Z,16692
2019-05-28T06:44:14.799Z,16952
2019-05-28T06:45:07.533Z,17664
2019-05-28T06:46:25.998Z,18496
2019-05-28T06:47:18.531Z,19072
2019-05-28T06:47:45.842Z,19296
2019-05-28T06:48:38.128Z,19680
2019-05-28T06:49:04.298Z,19872
2019-05-28T06:49:56.608Z,20352
2019-05-28T06:50:49.014Z,20416
2019-05-28T06:51:15.181Z,20736
2019-05-28T06:52:07.722Z,20832
2019-05-28T06:52:34.314Z,20704
2019-05-28T06:53:26.576Z,20256
2019-05-28T06:54:18.896Z,19104
2019-05-28T06:54:45.054Z,18400
2019-05-28T06:55:37.343Z,16832
2019-05-28T06:56:55.872Z,15924
2019-05-28T06:57:49.192Z,13464
2019-05-28T06:58:15.328Z,11728
2019-05-28T06:59:08.722Z,11164
2019-05-28T06:59:34.797Z,11072
2019-05-28T07:00:27.135Z,10868
2019-05-28T07:01:46.918Z,10368
2019-05-28T07:02:39.249Z,9832
2019-05-28T07:03:05.406Z,9512
2019-05-28T07:04:12.667Z,8892
2019-05-28T07:04:32.550Z,8600
2019-05-28T07:05:18.238Z,8140
2019-05-28T07:05:44.371Z,7964
2019-05-28T07:06:38.741Z,7700
2019-05-28T07:07:04.822Z,7608
2019-05-28T07:07:57.134Z,7448
2019-05-28T07:08:49.429Z,7340
2019-05-28T07:09:15.598Z,7280
2019-05-28T07:10:07.918Z,7192
2019-05-28T07:11:28.390Z,7008
2019-05-28T07:11:54.539Z,6916
2019-05-28T07:12:47.844Z,6772
2019-05-28T07:14:06.326Z,6564
2019-05-28T07:14:59.040Z,6496
2019-05-28T07:15:25.076Z,6512
2019-05-28T07:16:17.379Z,6616
2019-05-28T07:16:53.012Z,6716
2019-05-28T07:17:36.860Z,6964
2019-05-28T07:18:56.341Z,7448
2019-05-28T07:20:15.789Z,7976
2019-05-28T07:21:08.083Z,8340
2019-05-28T07:21:34.273Z,8528
2019-05-28T07:22:26.621Z,8892
2019-05-28T07:23:18.911Z,9196
2019-05-28T07:23:45.054Z,9284
2019-05-28T07:24:37.370Z,9404
2019-05-28T07:25:55.909Z,9460
2019-05-28T07:26:48.253Z,9504
2019-05-28T07:27:14.398Z,9588
2019-05-28T07:28:11.351Z,9976
2019-05-28T07:29:26.128Z,11048
2019-05-28T07:30:18.470Z,12012
2019-05-28T07:30:44.615Z,12516
2019-05-28T07:31:36.941Z,13616
2019-05-28T07:32:29.258Z,14884
2019-05-28T07:32:55.441Z,15596
2019-05-28T07:33:47.765Z,17344
2019-05-28T07:35:08.174Z,20416
2019-05-28T07:35:45.064Z,21632
2019-05-28T07:36:28.624Z,23776
2019-05-28T07:36:54.760Z,24768
2019-05-28T07:37:47.044Z,27104
2019-05-28T07:38:39.355Z,30496
2019-05-28T07:39:05.469Z,45760
2019-05-28T07:39:57.803Z,64064
2019-05-28T07:40:31.385Z,67040
2019-05-28T07:41:17.304Z,44064
2019-05-28T07:42:36.881Z,87008
2019-05-28T07:43:29.247Z,60768
2019-05-28T07:43:55.416Z,42464
2019-05-28T07:44:47.741Z,72608
2019-05-28T07:46:06.408Z,48544
2019-05-28T07:46:58.706Z,45248
2019-05-28T07:47:24.873Z,36960
2019-05-28T07:48:17.169Z,36448
2019-05-28T07:49:35.643Z,44320
2019-05-28T07:50:27.983Z,40928
2019-05-28T07:51:46.454Z,71168
2019-05-28T07:52:38.832Z,43680
2019-05-28T07:53:04.983Z,64288
2019-05-28T07:53:59.275Z,68032
2019-05-28T07:54:25.445Z,69440
2019-05-28T07:55:17.767Z,67360
2019-05-28T07:56:36.305Z,78496
2019-05-28T07:57:28.610Z,70432
2019-05-28T07:57:54.784Z,51360
2019-05-28T07:58:47.138Z,38688
2019-05-28T07:59:39.426Z,26496
2019-05-28T08:00:06.092Z,25280
2019-05-28T08:00:57.912Z,24416
2019-05-28T08:02:16.474Z,23168
2019-05-28T08:03:08.801Z,22368
2019-05-28T08:03:34.940Z,21920
2019-05-28T08:04:27.285Z,21248
2019-05-28T08:05:45.835Z,20384
2019-05-28T08:06:53.633Z,19648
2019-05-28T08:07:06.260Z,19136
2019-05-28T08:07:58.612Z,18208
2019-05-28T08:08:24.770Z,17888
2019-05-28T08:09:17.061Z,17376
2019-05-28T08:10:09.357Z,17344
2019-05-28T08:10:36.492Z,17312
2019-05-28T08:11:28.817Z,16516
2019-05-28T08:11:54.957Z,16200
2019-05-28T08:12:47.275Z,15272
2019-05-28T08:14:07.728Z,13584
2019-05-28T08:15:26.408Z,12264
2019-05-28T08:16:52.480Z,11332
2019-05-28T08:18:06.219Z,10776
2019-05-28T08:18:58.509Z,10564
2019-05-28T08:19:24.719Z,10420
2019-05-28T08:20:18.590Z,10108
2019-05-28T08:21:36.503Z,9256
2019-05-28T08:22:41.471Z,8720
2019-05-28T08:22:57.064Z,8408
2019-05-28T08:24:15.701Z,7572
2019-05-28T08:25:22.159Z,7104
2019-05-28T08:25:46.606Z,6856
2019-05-28T08:26:04.903Z,6616
2019-05-28T08:26:57.221Z,6228
2019-05-28T08:28:20.127Z,5708
2019-05-28T08:29:36.225Z,5256
2019-05-28T08:30:28.553Z,4996
2019-05-28T08:30:54.702Z,4916
2019-05-28T08:31:49.040Z,4720
2019-05-28T08:32:15.174Z,4604
2019-05-28T08:33:07.513Z,4360
2019-05-28T08:34:26.978Z,4080
2019-05-28T08:35:46.446Z,3772
2019-05-28T08:36:38.734Z,3580
2019-05-28T08:37:07.019Z,3508
2019-05-28T08:37:59.177Z,3480
2019-05-28T08:38:25.314Z,3480
2019-05-28T08:39:17.746Z,3504
2019-05-28T08:40:36.344Z,3440
2019-05-28T08:41:28.650Z,3272
2019-05-28T08:41:54.832Z,3220
2019-05-28T08:42:47.265Z,3124
2019-05-28T08:44:05.764Z,3180
2019-05-28T08:44:58.078Z,3296
2019-05-28T08:45:24.254Z,3336
2019-05-28T08:46:16.622Z,3448
2019-05-28T08:47:08.960Z,3676
2019-05-28T08:47:35.120Z,3780
2019-05-28T08:48:27.487Z,3940
2019-05-28T08:49:46.062Z,3944
2019-05-28T08:50:39.423Z,3792
2019-05-28T08:51:05.562Z,3700
2019-05-28T08:51:57.868Z,3500
2019-05-28T08:53:16.381Z,3296
2019-05-28T08:54:08.695Z,3248
2019-05-28T08:54:34.832Z,3240
2019-05-28T08:55:27.128Z,3248
2019-05-28T08:56:45.963Z,3240
2019-05-28T08:57:38.962Z,3212
2019-05-28T08:58:05.497Z,3200
2019-05-28T08:58:57.838Z,3212
2019-05-28T09:00:16.371Z,3252
2019-05-28T09:01:08.661Z,3268
2019-05-28T09:01:34.825Z,3280
2019-05-28T09:02:28.792Z,3316
2019-05-28T09:03:45.679Z,3472
2019-05-28T09:04:38.015Z,3684
2019-05-28T09:05:22.960Z,3796
2019-05-28T09:05:57.631Z,4060
2019-05-28T09:06:27.151Z,4204
2019-05-28T09:07:17.172Z,4472
2019-05-28T09:08:39.548Z,4936
2019-05-28T09:09:28.982Z,5208
2019-05-28T09:09:55.117Z,5332
2019-05-28T09:10:47.446Z,5560
2019-05-28T09:12:09.482Z,5964
2019-05-28T09:13:26.015Z,6508
2019-05-28T09:14:18.310Z,6780
2019-05-28T09:14:55.543Z,6920
2019-05-28T09:15:38.861Z,7016
2019-05-28T09:16:04.970Z,6952
2019-05-28T09:16:57.318Z,6728
2019-05-28T09:18:15.904Z,6504
2019-05-28T09:19:10.467Z,6460
2019-05-28T09:19:34.434Z,6452
2019-05-28T09:20:26.723Z,6488
2019-05-28T09:21:19.157Z,6552
2019-05-28T09:21:45.300Z,6592
2019-05-28T09:22:38.600Z,6628
2019-05-28T09:23:04.770Z,6596
2019-05-28T09:23:57.159Z,6444
2019-05-28T09:25:15.844Z,6000
2019-05-28T09:26:08.174Z,5692
2019-05-28T09:26:34.328Z,5592
2019-05-28T09:27:27.120Z,5364
2019-05-28T09:28:29.642Z,5224
2019-05-28T09:28:45.734Z,5184
2019-05-28T09:29:38.092Z,5056
2019-05-28T09:30:56.622Z,4916
2019-05-28T09:31:48.900Z,4756
2019-05-28T09:32:15.039Z,4636
2019-05-28T09:33:07.689Z,4508
2019-05-28T09:34:26.129Z,4316
2019-05-28T09:35:19.423Z,4132
2019-05-28T09:36:03.698Z,4040
2019-05-28T09:37:06.477Z,3860
2019-05-28T09:37:59.117Z,3844
2019-05-28T09:38:25.228Z,3860
2019-05-28T09:39:17.612Z,3988
2019-05-28T09:40:48.859Z,4224
2019-05-28T09:41:05.806Z,4276
2019-05-28T09:41:57.871Z,4284
2019-05-28T09:43:16.331Z,4460
2019-05-28T09:44:08.686Z,4748
2019-05-28T09:44:34.833Z,4968
2019-05-28T09:45:29.148Z,5492
2019-05-28T09:45:55.291Z,5752
2019-05-28T09:46:47.595Z,6380
2019-05-28T09:48:06.103Z,7680
2019-05-28T09:48:58.492Z,8668
2019-05-28T09:49:24.631Z,9100
2019-05-28T09:50:29.679Z,9892
2019-05-28T09:50:46.247Z,10268
2019-05-28T09:51:38.538Z,10768
2019-05-28T09:52:04.698Z,10892
2019-05-28T09:52:58.979Z,10904
2019-05-28T09:53:25.111Z,10844
2019-05-28T09:54:17.421Z,10568
2019-05-28T09:55:35.876Z,10156
2019-05-28T09:56:31.942Z,10056
2019-05-28T09:56:55.370Z,10052
2019-05-28T09:57:48.684Z,9948
2019-05-28T09:58:14.821Z,9916
2019-05-28T09:59:07.169Z,10000
2019-05-28T09:59:41.354Z,10048
2019-05-28T10:00:26.687Z,10168
2019-05-28T10:01:47.255Z,10620
2019-05-28T10:03:05.730Z,10808
2019-05-28T10:03:58.075Z,10800
2019-05-28T10:04:43.580Z,10756
2019-05-28T10:05:18.614Z,10568
2019-05-28T10:05:56.963Z,10476
2019-05-28T10:07:06.284Z,10204
2019-05-28T10:07:58.706Z,10012
2019-05-28T10:08:24.935Z,9896
2019-05-28T10:09:17.295Z,9600
2019-05-28T10:10:35.776Z,9144
2019-05-28T10:11:28.094Z,8848
2019-05-28T10:11:54.267Z,8696
2019-05-28T10:12:46.620Z,8408
2019-05-28T10:13:41.304Z,8192
2019-05-28T10:14:05.154Z,8096
2019-05-28T10:14:57.536Z,7948
2019-05-28T10:16:16.109Z,7852
2019-05-28T10:17:08.401Z,7972
2019-05-28T10:17:34.567Z,8116
2019-05-28T10:18:26.888Z,8476
2019-05-28T10:19:19.210Z,9012
2019-05-28T10:19:45.392Z,9268
2019-05-28T10:20:38.316Z,9780
2019-05-28T10:21:17.406Z,10132
2019-05-28T10:21:57.881Z,10852
2019-05-28T10:23:16.353Z,11996
2019-05-28T10:24:08.645Z,12980
2019-05-28T10:24:34.895Z,13652
2019-05-28T10:25:27.197Z,15212
2019-05-28T10:26:45.749Z,17952
2019-05-28T10:27:38.038Z,19360
2019-05-28T10:28:05.197Z,19872
2019-05-28T10:28:57.516Z,20640
2019-05-28T10:30:15.968Z,22080
2019-05-28T10:31:08.275Z,22080
2019-05-28T10:31:34.407Z,21696
2019-05-28T10:32:26.696Z,21920
2019-05-28T10:33:19.113Z,23808
2019-05-28T10:33:45.376Z,24896
2019-05-28T10:34:37.696Z,27520
2019-05-28T10:35:04.865Z,28960
2019-05-28T10:35:57.203Z,29792
2019-05-28T10:37:16.850Z,31584
2019-05-28T10:38:14.811Z,32672
2019-05-28T10:38:35.412Z,33856
2019-05-28T10:39:27.778Z,34784
2019-05-28T10:40:46.249Z,39360
2019-05-28T10:41:38.586Z,34528
2019-05-28T10:42:04.808Z,34272
2019-05-28T10:42:57.190Z,32768
2019-05-28T10:44:15.982Z,30528
2019-05-28T10:45:08.338Z,28416
2019-05-28T10:45:34.490Z,27968
2019-05-28T10:46:27.021Z,27168
2019-05-28T10:47:19.361Z,26208
2019-05-28T10:47:45.545Z,25952
2019-05-28T10:48:37.920Z,25216
2019-05-28T10:49:04.264Z,25440
2019-05-28T10:49:57.842Z,26400
2019-05-28T10:51:16.356Z,29376
2019-05-28T10:52:35.854Z,34816
2019-05-28T10:53:28.283Z,39456
2019-05-28T10:53:54.420Z,43072
2019-05-28T10:54:46.828Z,48896
2019-05-28T10:55:39.177Z,48544
2019-05-28T10:56:05.288Z,49824
2019-05-28T10:56:57.614Z,46144
2019-05-28T10:58:16.057Z,51936
2019-05-28T10:59:08.572Z,88608
2019-05-28T10:59:34.789Z,67296
2019-05-28T11:00:27.105Z,40736
2019-05-28T11:01:19.475Z,38656
2019-05-28T11:01:45.607Z,40160
2019-05-28T11:02:37.948Z,52416
2019-05-28T11:03:56.466Z,41536
2019-05-28T11:04:48.788Z,34528
2019-05-28T11:05:14.961Z,31648
2019-05-28T11:06:07.297Z,28672
2019-05-28T11:07:27.786Z,28064
2019-05-28T11:08:46.267Z,28864
2019-05-28T11:10:22.401Z,30208
2019-05-28T11:11:26.223Z,31776
2019-05-28T11:12:18.544Z,34560
2019-05-28T11:12:44.677Z,35712
2019-05-28T11:13:51.951Z,40000
2019-05-28T11:14:05.125Z,41888
2019-05-28T11:14:57.431Z,45504
2019-05-28T11:16:15.967Z,51872
2019-05-28T11:17:08.324Z,60672
2019-05-28T11:17:34.469Z,64384
2019-05-28T11:18:26.820Z,105120
2019-05-28T11:19:19.172Z,63712
2019-05-28T11:19:45.316Z,87040
2019-05-28T11:20:37.719Z,49504
2019-05-28T11:21:57.222Z,50112
2019-05-28T11:23:15.656Z,46368